createdAt,value
2022-11-19T00:01:20.804Z,12.90
2022-11-19T00:03:52.329Z,12.50
2022-11-19T00:06:22.409Z,18.73
2022-11-19T00:08:49.449Z,14.50
2022-11-19T00:11:40.500Z,16.87
2022-11-19T00:14:08.730Z,14.80
2022-11-19T00:16:35.389Z,12.53
2022-11-19T00:19:02.185Z,10.90
2022-11-19T00:21:28.889Z,11.13
2022-11-19T00:23:55.945Z,13.40
2022-11-19T00:26:23.555Z,15.23
2022-11-19T00:28:50.303Z,13.00
2022-11-19T00:31:17.992Z,10.77
2022-11-19T00:33:45.914Z,11.07
2022-11-19T00:36:19.663Z,10.10
2022-11-19T00:38:46.370Z,10.50
2022-11-19T00:41:12.955Z,11.17
2022-11-19T00:43:48.977Z,9.67
2022-11-19T00:46:36.244Z,11.13
2022-11-19T00:49:03.037Z,9.80
2022-11-19T00:51:30.954Z,8.50
2022-11-19T00:53:58.515Z,10.47
2022-11-19T00:56:26.782Z,9.80
2022-11-19T00:58:53.823Z,8.03
2022-11-19T01:01:23.421Z,13.53
2022-11-19T01:03:50.770Z,8.17
2022-11-19T01:06:20.400Z,8.23
2022-11-19T01:08:48.547Z,8.33
2022-11-19T01:11:22.085Z,8.23
2022-11-19T01:13:49.260Z,8.23
2022-11-19T01:16:19.401Z,9.00
2022-11-19T01:18:49.230Z,8.63
2022-11-19T01:21:17.537Z,9.87
2022-11-19T01:23:45.179Z,8.67
2022-11-19T01:26:12.902Z,9.67
2022-11-19T01:28:39.547Z,11.80
2022-11-19T01:31:22.233Z,10.60
2022-11-19T01:33:48.927Z,9.63
2022-11-19T01:36:19.301Z,11.90
2022-11-19T01:38:52.111Z,10.40
2022-11-19T01:41:29.700Z,10.60
2022-11-19T01:44:02.442Z,13.47
2022-11-19T01:46:34.342Z,13.73
2022-11-19T01:49:14.801Z,14.00
2022-11-19T01:51:48.646Z,14.13
2022-11-19T01:54:33.563Z,14.87
2022-11-19T01:57:06.351Z,16.80
2022-11-19T01:59:33.238Z,10.73
2022-11-19T02:02:00.144Z,13.97
2022-11-19T02:04:27.543Z,13.23
2022-11-19T02:06:55.185Z,14.10
2022-11-19T02:09:22.520Z,14.57
2022-11-19T02:12:00.139Z,14.87
2022-11-19T02:14:49.259Z,13.43
2022-11-19T02:17:45.751Z,13.83
2022-11-19T02:20:18.712Z,14.27
2022-11-19T02:23:09.074Z,11.00
2022-11-19T02:25:38.875Z,16.27
2022-11-19T02:28:20.695Z,13.97
2022-11-19T02:30:51.181Z,13.13
2022-11-19T02:33:35.453Z,14.60
2022-11-19T02:36:29.514Z,15.00
2022-11-19T02:39:09.474Z,15.77
2022-11-19T02:42:09.814Z,15.30
2022-11-19T02:45:02.896Z,14.50
2022-11-19T02:47:35.283Z,15.27
2022-11-19T02:50:13.718Z,15.40
2022-11-19T02:52:42.750Z,14.30
2022-11-19T02:55:17.063Z,15.53
2022-11-19T02:57:49.000Z,17.07
2022-11-19T03:00:34.699Z,15.17
2022-11-19T03:03:33.328Z,13.43
2022-11-19T03:06:07.262Z,15.57
2022-11-19T03:08:34.024Z,16.30
2022-11-19T03:11:13.570Z,15.77
2022-11-19T03:14:09.839Z,14.67
2022-11-19T03:16:41.371Z,18.03
2022-11-19T03:19:20.535Z,16.13
2022-11-19T03:22:05.599Z,17.20
2022-11-19T03:24:58.576Z,14.40
2022-11-19T03:27:29.889Z,15.10
2022-11-19T03:29:58.063Z,14.77
2022-11-19T03:32:46.482Z,17.20
2022-11-19T03:35:20.705Z,16.43
2022-11-19T03:37:51.044Z,16.13
2022-11-19T03:40:19.984Z,15.27
2022-11-19T03:42:50.428Z,18.37
2022-11-19T03:45:22.457Z,16.20
2022-11-19T03:47:51.546Z,19.23
2022-11-19T03:50:47.410Z,17.33
2022-11-19T03:53:14.509Z,18.33
2022-11-19T03:55:47.167Z,19.50
2022-11-19T03:58:13.803Z,17.80
2022-11-19T04:00:40.454Z,19.90
2022-11-19T04:03:07.098Z,16.43
2022-11-19T04:05:33.637Z,19.40
2022-11-19T04:08:00.240Z,19.57
2022-11-19T04:10:26.855Z,21.47
2022-11-19T04:12:53.495Z,18.07
2022-11-19T04:15:20.065Z,19.33
2022-11-19T04:17:46.642Z,20.47
2022-11-19T04:20:13.534Z,18.70
2022-11-19T04:22:40.142Z,20.77
2022-11-19T04:25:07.037Z,20.73
2022-11-19T04:27:33.829Z,15.47
2022-11-19T04:30:00.445Z,22.83
2022-11-19T04:32:27.106Z,18.33
2022-11-19T04:34:54.080Z,18.17
2022-11-19T04:37:20.694Z,17.33
2022-11-19T04:39:47.297Z,20.57
2022-11-19T04:42:13.904Z,17.20
2022-11-19T04:44:40.534Z,20.13
2022-11-19T04:47:07.130Z,16.30
2022-11-19T04:49:33.738Z,19.23
2022-11-19T04:52:00.316Z,20.80
2022-11-19T04:54:26.893Z,17.03
2022-11-19T04:56:53.533Z,19.53
2022-11-19T04:59:20.314Z,18.27
2022-11-19T05:01:47.147Z,19.77
2022-11-19T05:04:13.844Z,20.90
2022-11-19T05:06:40.447Z,24.57
2022-11-19T05:09:07.186Z,20.50
2022-11-19T05:11:33.785Z,24.70
2022-11-19T05:14:00.625Z,19.50
2022-11-19T05:16:27.272Z,17.90
2022-11-19T05:18:53.865Z,20.57
2022-11-19T05:21:20.455Z,24.43
2022-11-19T05:23:47.009Z,24.00
2022-11-19T05:26:13.576Z,22.57
2022-11-19T05:28:40.353Z,20.70
2022-11-19T05:31:07.858Z,21.27
2022-11-19T05:33:34.890Z,25.07
2022-11-19T05:36:02.301Z,19.90
2022-11-19T05:38:29.072Z,18.93
2022-11-19T05:40:55.682Z,20.27
2022-11-19T05:43:22.333Z,20.20
2022-11-19T05:45:48.916Z,20.90
2022-11-19T05:48:15.500Z,21.60
2022-11-19T05:50:42.813Z,19.53
2022-11-19T05:53:10.079Z,21.97
2022-11-19T05:55:36.724Z,22.13
2022-11-19T05:58:03.422Z,25.00
2022-11-19T06:00:30.313Z,22.97
2022-11-19T06:02:56.952Z,20.07
2022-11-19T06:05:23.738Z,21.53
2022-11-19T06:07:50.429Z,24.30
2022-11-19T06:10:17.210Z,24.40
2022-11-19T06:12:46.002Z,26.00
2022-11-19T06:15:13.774Z,19.10
2022-11-19T06:17:40.866Z,22.10
2022-11-19T06:20:11.546Z,21.30
2022-11-19T06:22:38.514Z,21.10
2022-11-19T06:25:06.175Z,24.60
2022-11-19T06:27:32.784Z,24.60
2022-11-19T06:29:59.393Z,23.47
2022-11-19T06:32:26.345Z,21.60
2022-11-19T06:34:53.132Z,25.13
2022-11-19T06:37:19.916Z,22.10
2022-11-19T06:39:46.522Z,20.13
2022-11-19T06:42:31.696Z,21.30
2022-11-19T06:44:58.299Z,18.20
2022-11-19T06:47:24.923Z,22.00
2022-11-19T06:49:51.529Z,17.97
2022-11-19T06:52:18.089Z,18.47
2022-11-19T06:54:44.723Z,22.33
2022-11-19T06:57:11.295Z,19.73
2022-11-19T06:59:39.139Z,17.00
2022-11-19T07:02:06.813Z,22.53
2022-11-19T07:04:33.464Z,17.80
2022-11-19T07:07:00.191Z,21.90
2022-11-19T07:09:26.821Z,22.10
2022-11-19T07:11:53.495Z,20.87
2022-11-19T07:14:20.072Z,19.30
2022-11-19T07:16:46.684Z,20.93
2022-11-19T07:19:13.447Z,20.70
2022-11-19T07:21:40.123Z,23.67
2022-11-19T07:24:09.096Z,18.20
2022-11-19T07:26:36.747Z,22.80
2022-11-19T07:29:07.710Z,23.67
2022-11-19T07:31:34.747Z,24.73
2022-11-19T07:34:01.847Z,19.03
2022-11-19T07:36:28.505Z,19.73
2022-11-19T07:38:55.251Z,19.97
2022-11-19T07:41:41.039Z,20.70
2022-11-19T07:44:07.726Z,20.80
2022-11-19T07:46:34.663Z,22.23
2022-11-19T07:49:01.611Z,23.10
2022-11-19T07:51:28.363Z,16.87
2022-11-19T07:53:56.190Z,24.00
2022-11-19T07:56:22.929Z,20.67
2022-11-19T07:58:49.648Z,23.97
2022-11-19T08:01:21.423Z,24.03
2022-11-19T08:03:55.745Z,21.57
2022-11-19T08:06:25.430Z,26.27
2022-11-19T08:08:52.546Z,24.60
2022-11-19T08:11:19.474Z,27.50
2022-11-19T08:13:46.095Z,20.20
2022-11-19T08:16:37.788Z,21.23
2022-11-19T08:19:09.889Z,19.10
2022-11-19T08:21:39.950Z,23.43
2022-11-19T08:24:07.504Z,22.10
2022-11-19T08:26:34.130Z,24.77
2022-11-19T08:29:00.735Z,20.37
2022-11-19T08:31:27.396Z,22.47
2022-11-19T08:33:54.010Z,25.20
2022-11-19T08:36:21.006Z,22.50
2022-11-19T08:38:47.825Z,24.90
2022-11-19T08:41:33.060Z,24.70
2022-11-19T08:44:01.573Z,21.23
2022-11-19T08:46:28.305Z,25.63
2022-11-19T08:48:54.925Z,22.43
2022-11-19T08:51:21.459Z,21.43
2022-11-19T08:53:48.166Z,24.70
2022-11-19T08:56:18.044Z,25.70
2022-11-19T08:58:45.124Z,19.17
2022-11-19T09:01:14.025Z,22.07
2022-11-19T09:03:40.953Z,23.90
2022-11-19T09:06:07.882Z,20.47
2022-11-19T09:08:34.785Z,19.60
2022-11-19T09:11:06.626Z,23.20
2022-11-19T09:13:33.470Z,19.47
2022-11-19T09:16:00.131Z,23.83
2022-11-19T09:18:26.740Z,21.60
2022-11-19T09:20:56.792Z,21.47
2022-11-19T09:23:24.993Z,23.43
2022-11-19T09:26:03.081Z,23.27
2022-11-19T09:28:31.286Z,23.27
2022-11-19T09:30:59.822Z,28.30
2022-11-19T09:33:28.717Z,29.40
2022-11-19T09:35:55.306Z,22.53
2022-11-19T09:38:29.589Z,20.23
2022-11-19T09:40:59.269Z,26.93
2022-11-19T09:43:42.437Z,26.17
2022-11-19T09:46:14.764Z,23.83
2022-11-19T09:48:41.832Z,23.13
2022-11-19T09:51:14.079Z,21.37
2022-11-19T09:53:49.295Z,23.67
2022-11-19T09:56:23.359Z,20.70
2022-11-19T09:58:50.047Z,21.60
2022-11-19T10:01:18.734Z,21.60
2022-11-19T10:03:48.868Z,25.10
2022-11-19T10:06:15.444Z,19.63
2022-11-19T10:09:02.893Z,23.33
2022-11-19T10:11:38.369Z,28.93
2022-11-19T10:14:29.409Z,24.03
2022-11-19T10:17:17.966Z,23.53
2022-11-19T10:20:11.395Z,24.87
2022-11-19T10:23:03.441Z,24.03
2022-11-19T10:25:39.253Z,19.20
2022-11-19T10:28:25.607Z,22.90
2022-11-19T10:30:55.988Z,22.77
2022-11-19T10:33:35.908Z,23.13
2022-11-19T10:36:12.206Z,21.97
2022-11-19T10:39:10.183Z,21.07
2022-11-19T10:41:51.938Z,24.97
2022-11-19T10:44:37.750Z,25.93
2022-11-19T10:47:06.354Z,20.97
2022-11-19T10:49:39.818Z,26.63
2022-11-19T10:52:17.488Z,27.67
2022-11-19T10:54:46.403Z,19.10
2022-11-19T10:57:16.873Z,19.73
2022-11-19T10:59:44.039Z,19.20
2022-11-19T11:02:28.038Z,17.57
2022-11-19T11:05:03.515Z,22.63
2022-11-19T11:07:51.445Z,19.43
2022-11-19T11:10:27.162Z,19.10
2022-11-19T11:13:14.336Z,21.40
2022-11-19T11:15:46.755Z,24.37
2022-11-19T11:18:15.160Z,20.00
2022-11-19T11:20:50.024Z,20.53
2022-11-19T11:23:20.934Z,17.77
2022-11-19T11:25:54.128Z,20.10
2022-11-19T11:28:23.246Z,23.30
2022-11-19T11:30:55.787Z,23.93
2022-11-19T11:33:34.800Z,17.23
2022-11-19T11:36:15.499Z,22.57
2022-11-19T11:38:51.522Z,15.03
2022-11-19T11:42:03.659Z,22.07
2022-11-19T11:44:18.526Z,22.50
2022-11-19T11:46:50.874Z,18.97
2022-11-19T11:49:35.605Z,17.47
2022-11-19T11:52:13.358Z,18.73
2022-11-19T11:54:57.221Z,22.57
2022-11-19T11:57:30.573Z,20.60
2022-11-19T11:59:57.654Z,19.00
2022-11-19T12:02:33.269Z,19.27
2022-11-19T12:05:07.474Z,20.90
2022-11-19T12:07:42.866Z,17.27
2022-11-19T12:10:25.130Z,20.80
2022-11-19T12:12:51.710Z,18.60
2022-11-19T12:15:26.788Z,16.13
2022-11-19T12:18:22.872Z,15.63
2022-11-19T12:21:11.946Z,20.60
2022-11-19T12:23:50.818Z,18.40
2022-11-19T12:26:52.289Z,17.80
2022-11-19T12:29:36.926Z,15.67
2022-11-19T12:32:29.620Z,22.23
2022-11-19T12:35:15.600Z,18.63
2022-11-19T12:38:26.345Z,25.23
2022-11-19T12:41:17.745Z,21.70
2022-11-19T12:43:53.340Z,22.20
2022-11-19T12:46:40.856Z,17.60
2022-11-19T12:49:23.309Z,21.27
2022-11-19T12:52:50.373Z,19.97
2022-11-19T12:56:18.226Z,20.87
2022-11-19T12:59:12.437Z,16.80
2022-11-19T13:01:43.421Z,21.97
2022-11-19T13:04:23.775Z,17.63
2022-11-19T13:07:05.246Z,25.10
2022-11-19T13:10:27.559Z,19.37
2022-11-19T13:12:57.141Z,18.67
2022-11-19T13:15:32.548Z,18.37
2022-11-19T13:18:04.122Z,21.00
2022-11-19T13:20:57.209Z,21.27
2022-11-19T13:23:32.657Z,20.70
2022-11-19T13:26:11.014Z,17.13
2022-11-19T13:29:09.594Z,15.03
2022-11-19T13:31:50.400Z,22.93
2022-11-19T13:34:26.917Z,18.80
2022-11-19T13:37:12.905Z,21.93
2022-11-19T13:39:45.233Z,19.93
2022-11-19T13:42:34.741Z,22.37
2022-11-19T13:45:01.484Z,18.40
2022-11-19T13:47:42.905Z,15.10
2022-11-19T13:50:22.415Z,17.87
2022-11-19T13:53:03.988Z,19.77
2022-11-19T13:55:33.811Z,17.97
2022-11-19T13:58:14.208Z,26.03
2022-11-19T14:00:54.235Z,24.60
2022-11-19T14:03:44.184Z,21.13
2022-11-19T14:06:17.041Z,21.83
2022-11-19T14:09:11.784Z,18.57
2022-11-19T14:11:59.302Z,17.10
2022-11-19T14:15:02.919Z,19.60
2022-11-19T14:18:09.862Z,21.83
2022-11-19T14:20:58.481Z,17.80
2022-11-19T14:24:08.644Z,16.57
2022-11-19T14:26:41.259Z,20.50
2022-11-19T14:29:25.934Z,23.27
2022-11-19T14:32:06.096Z,17.33
2022-11-19T14:34:35.540Z,21.63
2022-11-19T14:37:27.634Z,22.73
2022-11-19T14:40:00.558Z,20.47
2022-11-19T14:42:27.167Z,24.43
2022-11-19T14:45:02.964Z,18.70
2022-11-19T14:47:43.469Z,21.43
2022-11-19T14:50:31.015Z,18.17
2022-11-19T14:53:02.095Z,17.70
2022-11-19T14:55:30.314Z,20.17
2022-11-19T14:58:00.662Z,30.87
2022-11-19T15:00:46.187Z,22.67
2022-11-19T15:03:22.472Z,29.00
2022-11-19T15:05:49.834Z,25.27
2022-11-19T15:08:19.519Z,30.63
2022-11-19T15:11:02.771Z,30.60
2022-11-19T15:13:31.853Z,21.33
2022-11-19T15:16:20.985Z,25.07
2022-11-19T15:18:47.674Z,27.67
2022-11-19T15:21:26.893Z,23.23
2022-11-19T15:24:15.687Z,28.60
2022-11-19T15:27:01.149Z,30.13
2022-11-19T15:29:55.657Z,23.70
2022-11-19T15:32:57.738Z,20.10
2022-11-19T15:35:33.199Z,18.43
2022-11-19T15:38:38.381Z,16.93
2022-11-19T15:41:07.076Z,19.50
2022-11-19T15:43:41.033Z,20.87
2022-11-19T15:46:15.077Z,21.17
2022-11-19T15:49:01.672Z,17.97
2022-11-19T15:51:30.664Z,29.90
2022-11-19T15:54:07.047Z,22.70
2022-11-19T15:56:39.331Z,25.73
2022-11-19T15:59:08.100Z,25.40
2022-11-19T16:01:35.941Z,34.73
2022-11-19T16:04:15.274Z,32.37
2022-11-19T16:06:48.461Z,22.93
2022-11-19T16:09:21.384Z,41.10
2022-11-19T16:12:07.425Z,24.80
2022-11-19T16:14:52.694Z,42.87
2022-11-19T16:17:43.429Z,37.47
2022-11-19T16:20:10.488Z,49.07
2022-11-19T16:22:43.417Z,40.90
2022-11-19T16:25:39.050Z,32.70
2022-11-19T16:28:10.575Z,29.33
2022-11-19T16:31:05.020Z,32.47
2022-11-19T16:33:33.103Z,27.03
2022-11-19T16:36:17.199Z,24.07
2022-11-19T16:38:47.757Z,25.00
2022-11-19T16:41:37.554Z,26.47
2022-11-19T16:44:09.201Z,23.80
2022-11-19T16:46:38.645Z,23.53
2022-11-19T16:49:29.853Z,23.33
2022-11-19T16:51:58.070Z,19.33
2022-11-19T16:54:43.571Z,16.63
2022-11-19T16:57:11.911Z,20.80
2022-11-19T16:59:38.712Z,18.13
2022-11-19T17:02:14.667Z,15.43
2022-11-19T17:04:48.227Z,22.90
2022-11-19T17:07:23.010Z,22.37
2022-11-19T17:10:07.858Z,25.60
2022-11-19T17:12:36.358Z,29.27
2022-11-19T17:15:28.501Z,34.60
2022-11-19T17:17:55.118Z,36.07
2022-11-19T17:20:27.987Z,40.83
2022-11-19T17:22:56.226Z,31.27
2022-11-19T17:25:22.894Z,26.00
2022-11-19T17:28:00.286Z,21.93
2022-11-19T17:30:32.305Z,24.60
2022-11-19T17:33:01.649Z,26.73
2022-11-19T17:35:43.031Z,27.17
2022-11-19T17:38:15.693Z,20.07
2022-11-19T17:40:48.508Z,26.40
2022-11-19T17:43:38.556Z,22.40
2022-11-19T17:46:05.253Z,24.80
2022-11-19T17:48:32.260Z,23.07
2022-11-19T17:50:59.114Z,20.70
2022-11-19T17:53:26.004Z,20.80
2022-11-19T17:55:55.495Z,17.80
2022-11-19T17:58:22.254Z,14.53
2022-11-19T18:00:53.041Z,19.63
2022-11-19T18:03:20.098Z,14.10
2022-11-19T18:05:48.522Z,17.30
2022-11-19T18:08:16.358Z,17.47
2022-11-19T18:10:46.265Z,15.80
2022-11-19T18:13:17.252Z,20.70
2022-11-19T18:15:43.992Z,18.60
2022-11-19T18:18:10.708Z,20.20
2022-11-19T18:20:37.594Z,19.30
2022-11-19T18:23:04.516Z,16.07
2022-11-19T18:25:31.395Z,19.87
2022-11-19T18:27:58.110Z,17.73
2022-11-19T18:30:24.808Z,17.70
2022-11-19T18:32:52.224Z,17.27
2022-11-19T18:35:20.072Z,17.67
2022-11-19T18:37:46.776Z,24.60
2022-11-19T18:40:15.236Z,23.10
2022-11-19T18:43:20.955Z,24.97
2022-11-19T18:45:47.694Z,25.47
2022-11-19T18:48:14.529Z,17.70
2022-11-19T18:50:41.614Z,20.83
2022-11-19T18:53:13.144Z,18.43
2022-11-19T18:55:39.786Z,18.93
2022-11-19T18:58:06.422Z,22.97
2022-11-19T19:00:33.160Z,20.97
2022-11-19T19:03:00.806Z,16.17
2022-11-19T19:05:29.710Z,21.30
2022-11-19T19:07:56.423Z,14.93
2022-11-19T19:10:23.124Z,21.83
2022-11-19T19:12:49.748Z,15.60
2022-11-19T19:15:19.014Z,18.53
2022-11-19T19:17:45.770Z,21.57
2022-11-19T19:20:13.011Z,22.80
2022-11-19T19:22:39.737Z,18.37
2022-11-19T19:25:06.757Z,17.13
2022-11-19T19:27:33.412Z,17.53
2022-11-19T19:30:00.992Z,21.83
2022-11-19T19:32:28.222Z,21.10
2022-11-19T19:34:55.269Z,23.13
2022-11-19T19:37:24.041Z,25.90
2022-11-19T19:39:50.804Z,26.30
2022-11-19T19:42:17.430Z,31.87
2022-11-19T19:44:44.069Z,17.17
2022-11-19T19:47:10.720Z,23.70
2022-11-19T19:49:39.128Z,21.43
2022-11-19T19:52:06.071Z,19.97
2022-11-19T19:54:32.790Z,20.90
2022-11-19T19:56:59.459Z,23.20
2022-11-19T19:59:26.167Z,26.03
2022-11-19T20:01:53.939Z,26.60
2022-11-19T20:04:20.814Z,28.93
2022-11-19T20:06:47.945Z,23.23
2022-11-19T20:09:14.954Z,24.47
2022-11-19T20:11:41.604Z,23.10
2022-11-19T20:14:09.874Z,25.23
2022-11-19T20:16:40.164Z,27.60
2022-11-19T20:19:08.818Z,26.03
2022-11-19T20:21:36.486Z,31.87
2022-11-19T20:24:11.548Z,31.37
2022-11-19T20:26:40.274Z,26.63
2022-11-19T20:29:07.159Z,28.90
2022-11-19T20:31:34.704Z,28.87
2022-11-19T20:34:03.866Z,24.83
2022-11-19T20:36:33.914Z,23.70
2022-11-19T20:39:21.456Z,27.80
2022-11-19T20:42:07.349Z,25.13
2022-11-19T20:44:34.064Z,29.27
2022-11-19T20:47:03.277Z,22.70
2022-11-19T20:49:34.267Z,19.73
2022-11-19T20:52:01.496Z,18.90
2022-11-19T20:54:28.874Z,22.27
2022-11-19T20:56:56.404Z,20.40
2022-11-19T20:59:25.741Z,21.90
2022-11-19T21:01:53.957Z,24.03
2022-11-19T21:04:21.894Z,20.83
2022-11-19T21:06:51.866Z,23.30
2022-11-19T21:09:20.134Z,24.63
2022-11-19T21:11:47.810Z,21.50
2022-11-19T21:14:14.614Z,18.97
2022-11-19T21:16:41.383Z,22.40
2022-11-19T21:19:10.297Z,23.37
2022-11-19T21:21:37.412Z,22.50
2022-11-19T21:24:24.648Z,21.53
2022-11-19T21:26:51.385Z,18.80
2022-11-19T21:29:18.367Z,24.30
2022-11-19T21:31:47.289Z,22.67
2022-11-19T21:34:18.653Z,24.13
2022-11-19T21:36:46.951Z,23.97
2022-11-19T21:39:17.208Z,23.80
2022-11-19T21:41:44.700Z,24.70
2022-11-19T21:44:14.313Z,24.50
2022-11-19T21:46:43.393Z,22.80
2022-11-19T21:49:10.284Z,25.50
2022-11-19T21:51:37.508Z,25.27
2022-11-19T21:54:04.298Z,19.50
2022-11-19T21:56:36.906Z,21.20
2022-11-19T21:59:05.595Z,22.83
2022-11-19T22:01:32.295Z,25.70
2022-11-19T22:03:59.081Z,21.43
2022-11-19T22:06:25.702Z,23.63
2022-11-19T22:08:52.819Z,23.97
2022-11-19T22:11:39.689Z,22.53
2022-11-19T22:14:08.478Z,22.63
2022-11-19T22:16:40.320Z,22.77
2022-11-19T22:19:07.162Z,22.57
2022-11-19T22:21:34.311Z,19.43
2022-11-19T22:24:01.007Z,22.50
2022-11-19T22:26:27.990Z,23.53
2022-11-19T22:28:55.333Z,19.70
2022-11-19T22:31:23.183Z,21.17
2022-11-19T22:33:52.041Z,22.83
2022-11-19T22:36:20.437Z,25.37
2022-11-19T22:38:47.216Z,20.90
2022-11-19T22:41:16.579Z,21.60
2022-11-19T22:43:44.194Z,23.93
2022-11-19T22:46:12.755Z,21.70
2022-11-19T22:48:39.816Z,21.97
2022-11-19T22:51:19.107Z,28.43
2022-11-19T22:53:46.094Z,26.27
2022-11-19T22:56:16.210Z,23.70
2022-11-19T22:58:43.195Z,25.93
2022-11-19T23:01:25.655Z,28.70
2022-11-19T23:03:52.956Z,23.13
2022-11-19T23:06:20.462Z,25.67
2022-11-19T23:08:47.468Z,31.73
2022-11-19T23:11:16.656Z,24.27
2022-11-19T23:13:44.743Z,28.27
2022-11-19T23:16:15.582Z,29.77
2022-11-19T23:18:47.893Z,28.70
2022-11-19T23:21:18.034Z,24.53
2022-11-19T23:23:45.521Z,23.60
2022-11-19T23:26:14.913Z,28.53
2022-11-19T23:28:42.329Z,22.97
2022-11-19T23:31:13.914Z,25.97
2022-11-19T23:33:41.170Z,29.30
2022-11-19T23:36:11.972Z,25.10
2022-11-19T23:38:39.501Z,28.40
2022-11-19T23:41:08.242Z,31.43
2022-11-19T23:43:35.715Z,30.10
2022-11-19T23:46:09.879Z,26.73
2022-11-19T23:48:38.309Z,31.93
2022-11-19T23:51:08.045Z,30.80
2022-11-19T23:53:34.767Z,25.50
2022-11-19T23:56:02.009Z,28.93
2022-11-19T23:58:29.101Z,31.17
